Time;durP1;ratioP1;P1;durP2;ratioP2;P2;SDS_P1;SDS_P2;PMS_P1;PMS_P2;Temp;Humidity;BMP_temperature;BMP_pressure;BME280_temperature;BME280_humidity;BME280_pressure;Samples;Min_cycle;Max_cycle;Signal;HPM_P1;HPM_P2
2022/06/17 00:02:04;;;;;;;13.20;4.28;;;27.80;58.50;;;;;;5024924;28;20136;-62
2022/06/17 00:04:29;;;;;;;14.15;4.43;;;27.80;58.50;;;;;;5023066;28;20090;-62
2022/06/17 00:06:57;;;;;;;15.85;4.10;;;27.80;58.60;;;;;;5006831;28;20457;-62
2022/06/17 00:09:23;;;;;;;13.95;3.65;;;27.80;58.70;;;;;;5023387;28;20546;-61
2022/06/17 00:11:48;;;;;;;8.43;3.72;;;27.70;58.60;;;;;;5025868;28;20070;-62
2022/06/17 00:14:16;;;;;;;10.65;4.35;;;27.60;58.60;;;;;;5043042;28;20102;-62
2022/06/17 00:16:42;;;;;;;14.25;3.80;;;27.70;58.60;;;;;;5022488;28;20036;-61
2022/06/17 00:19:08;;;;;;;16.25;3.92;;;27.60;58.60;;;;;;5040750;28;20060;-62
2022/06/17 00:21:38;;;;;;;12.98;3.97;;;27.60;58.60;;;;;;5041325;28;20104;-62
2022/06/17 00:24:19;;;;;;;8.60;4.28;;;27.50;58.60;;;;;;5023865;28;20504;-62
2022/06/17 00:26:45;;;;;;;17.55;4.22;;;27.50;58.70;;;;;;5024835;28;20040;-62
2022/06/17 00:29:14;;;;;;;9.95;3.78;;;27.50;58.80;;;;;;5024534;28;20056;-62
2022/06/17 00:31:40;;;;;;;11.13;3.85;;;27.50;58.80;;;;;;5041254;28;20029;-62
2022/06/17 00:34:06;;;;;;;8.60;3.92;;;27.40;58.80;;;;;;5023947;28;20407;-62
2022/06/17 00:36:31;;;;;;;10.90;3.55;;;27.40;58.80;;;;;;5042858;28;20045;-62
2022/06/17 00:38:57;;;;;;;9.32;3.10;;;27.40;58.80;;;;;;5025115;28;20499;-62
2022/06/17 00:41:27;;;;;;;12.35;3.75;;;27.30;58.80;;;;;;5025014;28;20029;-61
2022/06/17 00:43:53;;;;;;;13.05;3.65;;;27.30;58.80;;;;;;5023822;28;20021;-63
2022/06/17 00:46:52;;;;;;;11.38;3.55;;;27.30;58.90;;;;;;5022871;28;20480;-61
2022/06/17 00:49:56;;;;;;;12.27;3.92;;;27.20;58.90;;;;;;5025137;28;20051;-62
2022/06/17 00:52:29;;;;;;;8.23;3.28;;;27.20;58.90;;;;;;5012785;28;20073;-62
2022/06/17 00:54:57;;;;;;;11.23;3.40;;;27.10;58.90;;;;;;5023263;28;20679;-62
2022/06/17 00:57:38;;;;;;;8.88;3.47;;;27.10;58.90;;;;;;5021753;28;20021;-61
2022/06/17 01:00:09;;;;;;;9.23;3.40;;;27.10;59.00;;;;;;5021700;28;20017;-62
2022/06/17 01:02:41;;;;;;;10.32;3.33;;;27.10;59.00;;;;;;5041068;28;20024;-62
2022/06/17 01:05:07;;;;;;;7.78;3.40;;;27.00;59.10;;;;;;5023970;28;20028;-63
2022/06/17 01:07:36;;;;;;;9.10;3.58;;;27.00;59.10;;;;;;5023944;28;20033;-61
2022/06/17 01:10:08;;;;;;;8.95;3.08;;;27.00;59.10;;;;;;5022783;28;20132;-61
2022/06/17 01:12:44;;;;;;;9.98;3.30;;;26.90;59.10;;;;;;5023895;28;20044;-61
2022/06/17 01:15:09;;;;;;;7.95;3.28;;;26.90;59.20;;;;;;5040301;28;20049;-62
2022/06/17 01:17:38;;;;;;;7.70;3.33;;;26.80;59.10;;;;;;5023651;28;20079;-62
2022/06/17 01:20:04;;;;;;;5.85;3.15;;;26.80;59.20;;;;;;4996709;28;20053;-63
2022/06/17 01:22:39;;;;;;;6.63;3.63;;;26.80;59.20;;;;;;5022918;28;20122;-63
2022/06/17 01:25:12;;;;;;;5.57;3.25;;;26.80;59.30;;;;;;5006134;28;20432;-62
2022/06/17 01:27:46;;;;;;;7.55;3.05;;;26.80;59.30;;;;;;5005888;28;20037;-62
2022/06/17 01:30:33;;;;;;;6.15;3.45;;;26.80;59.30;;;;;;5005474;28;20506;-62
2022/06/17 01:33:20;;;;;;;9.40;3.20;;;26.70;59.30;;;;;;5015681;28;20041;-62
2022/06/17 01:36:07;;;;;;;5.50;3.13;;;26.70;59.30;;;;;;5027524;28;20181;-62
2022/06/17 01:38:33;;;;;;;10.07;3.22;;;26.60;59.30;;;;;;5023657;28;20045;-60
2022/06/17 01:41:00;;;;;;;8.18;3.38;;;26.60;59.40;;;;;;5024942;28;20032;-62
2022/06/17 01:43:44;;;;;;;6.47;2.97;;;26.60;59.40;;;;;;5026842;28;20025;-61
2022/06/17 01:46:13;;;;;;;5.53;2.80;;;26.60;59.40;;;;;;5026009;28;20029;-61
2022/06/17 01:48:41;;;;;;;4.78;3.03;;;26.60;59.40;;;;;;5026293;28;20112;-63
2022/06/17 01:51:06;;;;;;;7.03;3.20;;;26.50;59.30;;;;;;5024529;28;20128;-62
2022/06/17 01:53:34;;;;;;;6.82;2.92;;;26.50;59.40;;;;;;5010904;28;20059;-62
2022/06/17 01:56:02;;;;;;;7.53;2.95;;;26.50;59.40;;;;;;5026320;28;20033;-61
2022/06/17 01:58:40;;;;;;;10.13;3.20;;;26.40;59.30;;;;;;5008743;28;20175;-62
2022/06/17 02:01:06;;;;;;;5.90;2.80;;;26.40;59.30;;;;;;5026111;28;20048;-61
2022/06/17 02:03:56;;;;;;;5.38;2.72;;;26.40;59.40;;;;;;5025691;28;20545;-61
2022/06/17 02:06:24;;;;;;;5.95;2.95;;;26.40;59.30;;;;;;5025136;28;20078;-61
2022/06/17 02:08:51;;;;;;;5.47;2.70;;;26.30;59.20;;;;;;5026318;28;20477;-62
2022/06/17 02:11:17;;;;;;;6.13;2.83;;;26.30;59.20;;;;;;5027338;28;20075;-63
2022/06/17 02:13:42;;;;;;;7.90;2.95;;;26.30;59.10;;;;;;5025884;28;20076;-61
2022/06/17 02:16:08;;;;;;;11.13;2.95;;;26.30;59.00;;;;;;5020933;28;20080;-61
2022/06/17 02:18:33;;;;;;;8.43;3.05;;;26.20;59.10;;;;;;5024798;28;20033;-62
2022/06/17 02:21:02;;;;;;;5.00;2.80;;;26.20;59.10;;;;;;5025924;28;20055;-62
2022/06/17 02:23:28;;;;;;;5.22;2.90;;;26.20;59.10;;;;;;5026092;28;20814;-62
2022/06/17 02:25:53;;;;;;;10.52;3.05;;;26.20;59.10;;;;;;5024356;28;20037;-62
2022/06/17 02:28:19;;;;;;;7.68;2.83;;;26.10;59.00;;;;;;5023951;28;20067;-61
2022/06/17 02:30:45;;;;;;;5.93;2.58;;;26.10;58.90;;;;;;5024306;28;20094;-62
2022/06/17 02:33:11;;;;;;;6.47;2.60;;;26.10;58.80;;;;;;5021631;28;20048;-61
2022/06/17 02:35:42;;;;;;;6.10;2.97;;;26.10;58.90;;;;;;5009761;28;20025;-61
2022/06/17 02:38:15;;;;;;;7.80;2.70;;;26.00;58.80;;;;;;5009280;28;20106;-62
2022/06/17 02:40:41;;;;;;;6.32;2.40;;;26.00;58.90;;;;;;5024476;28;20025;-62
2022/06/17 02:43:11;;;;;;;5.22;2.95;;;26.00;59.00;;;;;;5023374;28;20033;-61
2022/06/17 02:45:40;;;;;;;5.78;2.90;;;26.00;59.10;;;;;;5023919;28;21142;-62
2022/06/17 02:48:14;;;;;;;7.30;3.10;;;26.00;59.10;;;;;;5042750;28;20098;-62
2022/06/17 02:50:39;;;;;;;5.07;3.33;;;25.90;59.10;;;;;;5026161;28;20372;-62
2022/06/17 02:53:05;;;;;;;6.82;3.30;;;25.90;59.00;;;;;;5025871;28;20468;-62
2022/06/17 02:55:33;;;;;;;8.90;3.38;;;25.90;59.10;;;;;;5023545;28;20060;-62
2022/06/17 02:58:28;;;;;;;4.55;2.90;;;25.80;59.00;;;;;;5022459;28;20029;-62
2022/06/17 03:00:54;;;;;;;18.73;3.85;;;25.80;59.00;;;;;;5026002;28;20067;-61
2022/06/17 03:03:19;;;;;;;7.35;3.22;;;25.80;59.10;;;;;;5023049;28;20106;-62
2022/06/17 03:05:45;;;;;;;6.13;3.03;;;25.80;59.20;;;;;;5022172;28;20429;-62
2022/06/17 03:08:18;;;;;;;3.70;2.88;;;25.80;59.10;;;;;;5024237;28;20047;-62
2022/06/17 03:10:43;;;;;;;4.35;3.03;;;25.70;59.10;;;;;;5042478;28;20036;-64
2022/06/17 03:13:18;;;;;;;4.78;3.00;;;25.70;59.20;;;;;;5024632;28;20029;-63
2022/06/17 03:15:45;;;;;;;4.97;2.80;;;25.70;59.30;;;;;;5009616;28;20078;-63
2022/06/17 03:18:10;;;;;;;7.30;3.38;;;25.70;59.30;;;;;;5009581;28;20452;-61
2022/06/17 03:20:36;;;;;;;9.60;3.40;;;25.60;59.30;;;;;;5024042;28;20060;-62
2022/06/17 03:23:10;;;;;;;6.00;2.83;;;25.60;59.30;;;;;;5042507;28;20501;-61
2022/06/17 03:25:46;;;;;;;7.15;3.33;;;25.60;59.40;;;;;;5025600;28;20455;-62
2022/06/17 03:28:13;;;;;;;4.50;2.63;;;25.60;59.40;;;;;;5023900;28;20676;-62
2022/06/17 03:30:48;;;;;;;8.07;2.88;;;25.60;59.50;;;;;;5007648;28;20160;-62
2022/06/17 03:33:20;;;;;;;10.50;3.13;;;25.50;59.40;;;;;;5023187;28;20029;-62
2022/06/17 03:35:46;;;;;;;7.30;3.60;;;25.50;59.40;;;;;;4990502;28;20495;-63
2022/06/17 03:38:22;;;;;;;7.05;3.42;;;25.50;59.50;;;;;;5023781;28;20044;-61
2022/06/17 03:40:49;;;;;;;9.68;3.45;;;25.50;59.50;;;;;;5025005;28;20583;-61
2022/06/17 03:43:28;;;;;;;4.18;2.97;;;25.40;59.40;;;;;;5025931;28;20098;-61
2022/06/17 03:45:58;;;;;;;6.28;3.05;;;25.40;59.50;;;;;;5006923;28;20424;-62
2022/06/17 03:48:23;;;;;;;14.02;3.78;;;25.40;59.60;;;;;;5022412;28;20048;-62
2022/06/17 03:50:49;;;;;;;4.55;3.20;;;25.40;59.60;;;;;;5040695;28;20106;-61
2022/06/17 03:53:25;;;;;;;4.60;3.40;;;25.40;59.60;;;;;;5042503;28;20025;-61
2022/06/17 03:55:51;;;;;;;6.13;3.08;;;25.40;59.60;;;;;;5025620;28;20025;-62
2022/06/17 03:58:17;;;;;;;4.95;3.33;;;25.30;59.60;;;;;;5022615;28;20067;-61
2022/06/17 04:00:47;;;;;;;5.80;3.40;;;25.30;59.60;;;;;;5040601;28;20527;-62
2022/06/17 04:03:18;;;;;;;5.97;2.50;;;25.30;59.60;;;;;;5008774;28;20116;-61
2022/06/17 04:05:43;;;;;;;7.75;3.08;;;25.20;59.50;;;;;;5023394;28;20100;-61
2022/06/17 04:08:12;;;;;;;6.20;3.22;;;25.20;59.60;;;;;;5024071;28;20335;-63
2022/06/17 04:10:38;;;;;;;8.18;3.10;;;25.20;59.60;;;;;;5041708;28;20033;-61
2022/06/17 04:13:03;;;;;;;5.00;3.05;;;25.20;59.60;;;;;;5022553;28;20483;-62
2022/06/17 04:15:59;;;;;;;10.48;3.50;;;25.20;59.50;;;;;;5039769;28;20068;-61
2022/06/17 04:18:25;;;;;;;15.00;3.58;;;25.20;59.60;;;;;;5023165;28;20031;-63
2022/06/17 04:20:52;;;;;;;4.97;3.03;;;25.10;59.60;;;;;;5039939;28;20053;-62
2022/06/17 04:23:22;;;;;;;9.48;3.70;;;25.10;59.50;;;;;;5023125;28;20209;-62
2022/06/17 04:26:02;;;;;;;5.97;3.38;;;25.10;59.60;;;;;;5023104;28;20123;-61
2022/06/17 04:28:41;;;;;;;13.60;3.35;;;25.10;59.50;;;;;;5021466;28;20125;-61
2022/06/17 04:31:07;;;;;;;8.32;3.00;;;25.10;59.50;;;;;;5007614;28;20649;-62
2022/06/17 04:33:54;;;;;;;27.23;4.90;;;25.10;59.50;;;;;;5024408;28;20130;-60
2022/06/17 04:36:33;;;;;;;16.77;4.60;;;25.10;59.50;;;;;;5022426;28;20041;-62
2022/06/17 04:39:06;;;;;;;20.13;4.45;;;25.10;59.50;;;;;;5020646;28;20027;-62
2022/06/17 04:41:34;;;;;;;15.30;4.72;;;25.10;59.40;;;;;;5022153;28;20507;-62
2022/06/17 04:44:00;;;;;;;16.73;4.38;;;25.00;59.40;;;;;;5007065;28;20040;-61
2022/06/17 04:46:27;;;;;;;15.25;4.55;;;25.10;59.50;;;;;;5023868;28;20404;-62
2022/06/17 04:48:57;;;;;;;19.60;4.22;;;25.00;59.40;;;;;;5022267;28;20480;-60
2022/06/17 04:51:24;;;;;;;16.02;4.20;;;25.00;59.40;;;;;;5019674;28;20106;-62
2022/06/17 04:53:49;;;;;;;15.38;3.60;;;25.00;59.40;;;;;;5020655;28;20090;-62
2022/06/17 04:56:29;;;;;;;27.23;5.15;;;25.00;59.40;;;;;;5023405;28;20317;-61
2022/06/17 04:58:54;;;;;;;17.60;4.68;;;25.00;59.20;;;;;;5020872;28;20100;-62
2022/06/17 05:01:20;;;;;;;13.43;4.85;;;24.90;59.30;;;;;;5024420;28;20129;-61
2022/06/17 05:03:45;;;;;;;15.32;3.72;;;25.00;59.30;;;;;;5022229;28;20208;-61
2022/06/17 05:06:11;;;;;;;20.42;4.20;;;25.00;59.20;;;;;;5004725;28;20477;-62
2022/06/17 05:08:39;;;;;;;16.00;4.45;;;24.90;59.10;;;;;;5039144;28;20533;-62
2022/06/17 05:11:32;;;;;;;10.55;3.92;;;24.90;59.10;;;;;;5028243;28;20032;-61
2022/06/17 05:14:05;;;;;;;17.02;3.83;;;25.00;59.10;;;;;;5041542;28;20033;-61
2022/06/17 05:16:30;;;;;;;13.18;3.35;;;25.00;59.00;;;;;;5021599;28;20021;-62
2022/06/17 05:18:56;;;;;;;13.63;3.90;;;25.00;59.00;;;;;;5042855;28;20047;-61
2022/06/17 05:21:23;;;;;;;10.38;4.20;;;25.00;59.10;;;;;;5042232;28;20040;-62
2022/06/17 05:23:50;;;;;;;15.52;4.10;;;24.90;59.10;;;;;;5025660;28;20556;-61
2022/06/17 05:26:16;;;;;;;10.77;3.45;;;25.00;59.10;;;;;;5027267;28;20017;-62
2022/06/17 05:28:41;;;;;;;11.95;3.70;;;24.90;59.00;;;;;;5027727;28;20025;-62
2022/06/17 05:31:09;;;;;;;14.15;3.72;;;24.90;59.00;;;;;;5044598;28;20048;-62
2022/06/17 05:33:37;;;;;;;10.52;3.22;;;24.90;59.00;;;;;;5026742;28;20044;-61
2022/06/17 05:36:02;;;;;;;10.88;3.33;;;24.90;58.80;;;;;;5026845;28;20067;-62
2022/06/17 05:38:30;;;;;;;15.75;3.80;;;25.00;58.70;;;;;;5025934;28;20024;-62
2022/06/17 05:40:55;;;;;;;13.82;4.03;;;25.00;58.60;;;;;;5024671;28;20029;-62
2022/06/17 05:43:21;;;;;;;14.57;3.78;;;25.00;58.60;;;;;;5042528;28;20037;-62
2022/06/17 05:45:46;;;;;;;9.00;3.30;;;25.00;58.50;;;;;;5025404;28;20040;-62
2022/06/17 05:48:12;;;;;;;8.18;3.22;;;25.00;58.40;;;;;;5008654;28;20097;-61
2022/06/17 05:50:37;;;;;;;12.73;3.33;;;25.00;58.40;;;;;;5026694;28;20106;-62
2022/06/17 05:53:05;;;;;;;8.80;3.08;;;25.00;58.30;;;;;;5027548;28;20056;-62
2022/06/17 05:55:31;;;;;;;11.55;3.38;;;25.00;58.50;;;;;;5027470;28;20652;-61
2022/06/17 05:57:57;;;;;;;7.55;2.90;;;25.10;58.60;;;;;;5025539;28;20485;-62
2022/06/17 06:00:23;;;;;;;8.13;2.88;;;25.10;58.40;;;;;;5043858;28;20060;-61
2022/06/17 06:02:49;;;;;;;13.00;3.10;;;25.10;58.50;;;;;;5025946;28;20107;-62
2022/06/17 06:05:17;;;;;;;12.90;3.42;;;25.00;58.30;;;;;;5027732;28;20905;-62
2022/06/17 06:07:43;;;;;;;13.88;3.30;;;25.00;58.30;;;;;;5010796;28;20037;-61
2022/06/17 06:10:09;;;;;;;6.03;2.60;;;25.00;58.10;;;;;;5042358;28;20036;-63
2022/06/17 06:15:19;;;;;;;10.05;3.15;;;25.00;58.20;;;;;;5027692;28;20091;-61
2022/06/17 06:17:45;;;;;;;6.97;2.85;;;25.00;58.10;;;;;;5027109;28;20036;-62
2022/06/17 06:20:12;;;;;;;5.35;2.30;;;25.00;57.60;;;;;;5026549;28;20048;-63
2022/06/17 06:22:37;;;;;;;11.18;2.70;;;24.90;57.50;;;;;;5025880;28;20185;-61
2022/06/17 06:25:03;;;;;;;8.15;2.70;;;24.90;57.60;;;;;;5043166;28;20183;-62
2022/06/17 06:27:28;;;;;;;7.22;2.97;;;24.90;57.50;;;;;;5044142;28;20110;-62
2022/06/17 06:29:54;;;;;;;5.70;2.58;;;24.90;57.60;;;;;;5011276;28;20044;-61
2022/06/17 06:32:20;;;;;;;10.73;2.88;;;24.90;57.60;;;;;;5024855;28;20033;-61
2022/06/17 06:34:47;;;;;;;9.98;3.08;;;24.80;57.70;;;;;;5005866;28;20033;-62
2022/06/17 06:37:12;;;;;;;10.02;2.80;;;24.80;57.60;;;;;;5022032;28;20187;-61
2022/06/17 06:39:38;;;;;;;14.93;3.90;;;24.80;57.60;;;;;;5034191;28;20033;-62
2022/06/17 06:42:04;;;;;;;9.65;3.38;;;24.80;57.50;;;;;;5041089;28;20037;-61
2022/06/17 06:44:29;;;;;;;14.43;2.97;;;24.80;57.50;;;;;;5025866;28;20053;-62
2022/06/17 06:46:55;;;;;;;11.80;2.90;;;24.70;57.30;;;;;;5025073;28;20124;-62
2022/06/17 06:49:20;;;;;;;11.35;3.33;;;24.70;57.50;;;;;;5038689;28;20503;-63
2022/06/17 06:51:46;;;;;;;19.83;3.60;;;24.80;57.40;;;;;;5042606;28;20241;-62
2022/06/17 06:54:12;;;;;;;10.75;2.95;;;24.80;57.40;;;;;;5022801;28;20035;-61
2022/06/17 06:56:37;;;;;;;11.70;3.33;;;24.80;57.30;;;;;;5043456;28;20079;-61
2022/06/17 06:59:03;;;;;;;14.48;3.60;;;24.70;57.40;;;;;;5042834;28;20021;-61
2022/06/17 07:01:29;;;;;;;11.35;3.38;;;24.70;57.60;;;;;;5041925;28;20568;-65
2022/06/17 07:03:54;;;;;;;13.48;3.90;;;24.70;57.70;;;;;;4989740;28;20033;-61
2022/06/17 07:06:20;;;;;;;19.27;3.30;;;24.80;57.70;;;;;;5041371;28;20060;-61
2022/06/17 07:08:45;;;;;;;11.68;3.08;;;24.80;57.60;;;;;;5024852;28;20100;-62
2022/06/17 07:11:11;;;;;;;14.90;3.78;;;24.80;57.60;;;;;;5043942;28;20108;-60
2022/06/17 07:13:36;;;;;;;16.85;3.50;;;24.80;57.20;;;;;;5040765;28;20536;-62
2022/06/17 07:16:04;;;;;;;17.52;3.38;;;24.80;57.30;;;;;;5023066;28;20029;-62
2022/06/17 07:18:31;;;;;;;12.30;3.60;;;24.90;57.20;;;;;;5023879;28;20025;-61
2022/06/17 07:21:00;;;;;;;13.75;3.10;;;24.90;57.30;;;;;;5023818;28;20112;-62
2022/06/17 07:23:34;;;;;;;20.75;4.53;;;24.90;57.30;;;;;;5024115;28;20028;-61
2022/06/17 07:26:02;;;;;;;22.23;3.88;;;24.90;57.30;;;;;;5008388;28;20021;-61
2022/06/17 07:28:28;;;;;;;20.65;4.18;;;24.80;57.30;;;;;;5022626;28;20035;-62
2022/06/17 07:30:55;;;;;;;26.90;4.18;;;24.90;57.50;;;;;;5036323;28;20045;-62
2022/06/17 07:33:21;;;;;;;16.15;3.75;;;24.90;57.20;;;;;;5003620;28;20471;-61
2022/06/17 07:35:47;;;;;;;25.00;5.03;;;24.90;57.40;;;;;;5022004;28;20029;-61
2022/06/17 07:41:06;;;;;;;29.25;4.45;;;24.90;57.50;;;;;;5025360;28;20384;-62
2022/06/17 07:43:31;;;;;;;34.63;4.65;;;24.90;57.60;;;;;;5022962;28;20037;-61
2022/06/17 07:45:57;;;;;;;28.20;5.15;;;24.90;57.60;;;;;;5040175;28;20048;-61
2022/06/17 07:48:23;;;;;;;26.55;5.72;;;24.90;57.70;;;;;;5005948;28;20044;-62
2022/06/17 07:50:48;;;;;;;35.58;6.30;;;24.90;57.70;;;;;;5021132;28;20041;-62
2022/06/17 07:53:14;;;;;;;32.90;5.93;;;24.90;57.80;;;;;;5038828;28;20036;-62
2022/06/17 07:55:40;;;;;;;44.97;6.35;;;24.90;58.00;;;;;;5006608;28;20037;-62
2022/06/17 07:58:06;;;;;;;36.78;7.28;;;24.90;57.90;;;;;;5039001;28;20355;-63
2022/06/17 08:00:36;;;;;;;48.47;7.47;;;24.90;58.20;;;;;;5021731;28;20565;-62
2022/06/17 08:03:03;;;;;;;29.00;5.65;;;24.90;58.10;;;;;;5014865;28;20568;-62
2022/06/17 08:05:30;;;;;;;35.58;5.32;;;24.90;58.30;;;;;;5017278;28;20585;-60
2022/06/17 08:07:55;;;;;;;40.78;6.45;;;24.90;58.40;;;;;;5018677;28;20029;-60
2022/06/17 08:10:27;;;;;;;41.90;5.63;;;24.90;58.50;;;;;;5020755;28;20099;-62
2022/06/17 08:12:53;;;;;;;51.72;7.78;;;24.90;58.60;;;;;;4995223;28;20029;-61
2022/06/17 08:15:19;;;;;;;43.92;7.03;;;24.90;58.60;;;;;;4999222;28;20510;-61
2022/06/17 08:17:45;;;;;;;49.35;7.70;;;24.90;58.50;;;;;;5021706;28;20036;-63
2022/06/17 08:20:34;;;;;;;41.58;7.40;;;25.00;58.70;;;;;;5032571;28;20444;-62
2022/06/17 08:22:59;;;;;;;35.88;7.55;;;24.90;58.80;;;;;;5005345;28;20036;-63
2022/06/17 08:25:26;;;;;;;54.10;8.15;;;24.90;58.80;;;;;;5017694;28;20696;-63
2022/06/17 08:27:53;;;;;;;46.25;7.60;;;24.90;58.80;;;;;;4995416;28;20032;-61
2022/06/17 08:30:20;;;;;;;33.30;7.18;;;25.00;58.90;;;;;;5009460;28;20443;-62
2022/06/17 08:32:46;;;;;;;48.70;7.43;;;24.90;58.90;;;;;;5015148;28;20036;-61
2022/06/17 08:35:21;;;;;;;43.08;7.22;;;25.00;58.90;;;;;;5003553;28;20266;-63
2022/06/17 08:37:47;;;;;;;64.93;7.30;;;25.00;59.00;;;;;;5000739;28;20145;-62
2022/06/17 08:40:26;;;;;;;53.95;7.47;;;25.00;59.10;;;;;;5020530;28;20132;-63
2022/06/17 08:43:16;;;;;;;56.17;8.38;;;25.00;59.10;;;;;;5012364;28;20496;-63
2022/06/17 08:45:53;;;;;;;77.85;10.60;;;25.00;59.10;;;;;;5016936;28;20033;-62
2022/06/17 08:48:31;;;;;;;69.97;10.45;;;25.00;59.20;;;;;;5036926;28;20085;-63
2022/06/17 08:51:21;;;;;;;65.68;8.43;;;25.00;59.30;;;;;;5016157;28;20039;-63
2022/06/17 08:53:56;;;;;;;64.68;9.02;;;25.10;59.40;;;;;;5018405;28;20049;-63
2022/06/17 08:56:28;;;;;;;60.33;9.37;;;25.10;59.50;;;;;;5037582;28;20086;-62
2022/06/17 08:59:06;;;;;;;65.90;10.55;;;25.10;59.50;;;;;;5039260;28;20447;-62
2022/06/17 09:01:52;;;;;;;72.40;9.98;;;25.10;59.60;;;;;;5020201;28;20478;-61
2022/06/17 09:04:22;;;;;;;;;;;25.10;59.60;;;;;;5017417;28;20563;-61
2022/06/17 09:07:09;;;;;;;79.07;11.13;;;25.20;59.70;;;;;;5019675;28;20421;-62
2022/06/17 09:09:46;;;;;;;109.38;14.95;;;25.20;59.80;;;;;;5019188;28;20142;-62
2022/06/17 09:12:14;;;;;;;91.15;12.98;;;25.20;60.20;;;;;;5023316;28;20044;-61
2022/06/17 09:15:02;;;;;;;87.50;11.55;;;25.20;60.00;;;;;;5019736;28;20041;-62
2022/06/17 09:17:43;;;;;;;76.25;11.85;;;25.20;60.10;;;;;;5014867;28;20514;-62
2022/06/17 09:20:10;;;;;;;79.93;11.70;;;25.30;60.10;;;;;;4998003;28;20041;-61
2022/06/17 09:22:42;;;;;;;77.75;10.80;;;25.30;60.80;;;;;;4997977;28;20044;-63
2022/06/17 09:25:10;;;;;;;64.82;11.30;;;25.30;60.20;;;;;;5022210;28;20036;-61
2022/06/17 09:27:37;;;;;;;90.78;10.45;;;25.30;60.10;;;;;;5008402;28;20520;-63
2022/06/17 09:30:15;;;;;;;84.57;10.88;;;25.30;60.30;;;;;;5013941;28;20203;-61
2022/06/17 09:33:02;;;;;;;71.55;10.73;;;25.40;60.30;;;;;;5004995;28;20088;-62
2022/06/17 09:35:33;;;;;;;89.18;11.90;;;25.40;60.30;;;;;;5013957;28;20033;-63
2022/06/17 09:38:07;;;;;;;76.25;11.18;;;25.40;60.40;;;;;;5010962;28;20040;-63
2022/06/17 09:40:36;;;;;;;80.05;11.45;;;25.40;60.50;;;;;;5011362;28;20049;-62
2022/06/17 09:43:12;;;;;;;72.63;12.07;;;25.50;60.30;;;;;;4982345;28;20146;-62
2022/06/17 09:45:52;;;;;;;68.30;11.23;;;25.60;60.30;;;;;;5013682;28;20041;-61
2022/06/17 09:48:18;;;;;;;104.43;12.85;;;25.60;60.40;;;;;;5017375;28;20332;-61
2022/06/17 09:51:17;;;;;;;98.70;11.27;;;25.60;60.50;;;;;;5030329;28;20147;-61
2022/06/17 09:53:49;;;;;;;71.13;11.38;;;25.60;60.30;;;;;;5000948;28;20044;-62
2022/06/17 09:56:17;;;;;;;79.85;11.32;;;25.70;60.40;;;;;;5012329;28;20044;-61
2022/06/17 09:59:01;;;;;;;79.60;11.90;;;25.60;60.20;;;;;;5037593;28;20061;-62
2022/06/17 10:01:26;;;;;;;83.43;12.07;;;25.70;60.20;;;;;;5017084;28;21383;-62
2022/06/17 10:03:52;;;;;;;84.78;11.65;;;25.70;60.10;;;;;;4993380;28;20071;-62
2022/06/17 10:06:45;;;;;;;82.97;11.05;;;25.80;60.40;;;;;;5022062;28;20090;-61
2022/06/17 10:09:22;;;;;;;79.57;11.23;;;25.80;60.10;;;;;;5040131;28;20112;-62
2022/06/17 10:12:13;;;;;;;62.90;10.32;;;25.90;60.00;;;;;;5027155;28;20047;-63
2022/06/17 10:15:03;;;;;;;62.08;10.15;;;25.90;59.90;;;;;;5006459;28;20291;-62
2022/06/17 10:20:23;;;;;;;52.60;9.38;;;25.90;59.80;;;;;;5021067;28;20048;-62
2022/06/17 10:22:51;;;;;;;77.85;11.13;;;26.00;59.80;;;;;;5033405;28;20150;-63
2022/06/17 10:25:23;;;;;;;68.45;9.65;;;26.00;59.90;;;;;;5036377;28;20443;-62
2022/06/17 10:28:11;;;;;;;62.78;10.00;;;26.00;59.80;;;;;;5017094;28;20048;-61
2022/06/17 10:30:43;;;;;;;78.88;10.25;;;26.10;59.70;;;;;;5018310;28;20173;-62
2022/06/17 10:33:10;;;;;;;56.42;8.95;;;26.10;59.50;;;;;;5019450;28;20107;-62
2022/06/17 10:35:38;;;;;;;66.03;9.57;;;26.20;59.50;;;;;;4996034;28;20044;-62
2022/06/17 10:38:05;;;;;;;57.40;8.82;;;26.20;59.30;;;;;;5006631;28;20083;-63
2022/06/17 10:40:31;;;;;;;51.17;8.82;;;26.30;59.10;;;;;;5038368;28;20033;-62
2022/06/17 10:43:02;;;;;;;56.78;8.75;;;26.40;59.00;;;;;;5001367;28;20029;-63
2022/06/17 10:45:28;;;;;;;42.70;8.00;;;26.40;58.70;;;;;;5029195;28;20033;-64
2022/06/17 10:48:00;;;;;;;53.42;8.13;;;26.50;58.60;;;;;;5017396;28;20029;-61
2022/06/17 10:50:28;;;;;;;61.15;8.18;;;26.60;58.50;;;;;;4999806;28;20306;-62
2022/06/17 10:53:00;;;;;;;51.72;8.93;;;26.60;58.10;;;;;;5000490;28;20033;-63
2022/06/17 10:55:30;;;;;;;65.97;8.02;;;26.70;58.30;;;;;;5029879;28;20462;-64
2022/06/17 10:58:07;;;;;;;52.10;8.63;;;26.70;58.00;;;;;;4994859;28;20039;-62
2022/06/17 11:00:34;;;;;;;55.97;9.32;;;26.80;58.10;;;;;;5028340;28;20123;-63
2022/06/17 11:03:20;;;;;;;48.90;8.00;;;27.00;58.00;;;;;;5017404;28;20491;-62
2022/06/17 11:05:59;;;;;;;52.53;8.90;;;27.00;57.80;;;;;;5007125;28;20029;-62
2022/06/17 11:08:31;;;;;;;45.65;7.75;;;27.20;57.80;;;;;;5003610;28;20110;-63
2022/06/17 11:12:02;;;;;;;46.85;7.97;;;27.20;57.70;;;;;;5012388;28;20028;-62
2022/06/17 11:13:47;;;;;;;57.63;8.77;;;27.30;57.50;;;;;;5024454;28;20041;-64
2022/06/17 11:16:15;;;;;;;64.50;9.00;;;27.50;57.20;;;;;;5013256;28;20032;-62
2022/06/17 11:18:43;;;;;;;45.38;7.90;;;27.50;57.20;;;;;;4999762;28;20106;-63
2022/06/17 11:21:10;;;;;;;43.47;6.90;;;27.60;56.90;;;;;;5033354;28;20626;-62
2022/06/17 11:23:39;;;;;;;42.80;7.78;;;27.70;56.70;;;;;;4997135;28;20048;-64
2022/06/17 11:26:16;;;;;;;35.08;6.78;;;27.80;56.50;;;;;;4983409;28;20033;-63
2022/06/17 11:28:50;;;;;;;45.50;7.35;;;27.90;56.30;;;;;;4987741;28;20234;-63
2022/06/17 11:31:29;;;;;;;41.22;6.95;;;28.00;56.50;;;;;;4984581;28;20022;-64
2022/06/17 11:33:54;;;;;;;36.67;6.95;;;28.10;56.20;;;;;;5014679;28;20612;-63
2022/06/17 11:36:21;;;;;;;24.33;5.82;;;28.10;55.70;;;;;;5020647;28;20118;-62
2022/06/17 11:38:46;;;;;;;31.13;5.75;;;28.20;55.40;;;;;;5009174;28;20037;-63
2022/06/17 11:41:28;;;;;;;37.95;6.53;;;28.30;55.10;;;;;;5011165;28;20234;-62
2022/06/17 11:44:06;;;;;;;34.80;6.10;;;28.40;55.60;;;;;;5002899;28;20036;-63
2022/06/17 11:46:35;;;;;;;27.85;5.47;;;28.50;55.60;;;;;;4998343;28;20095;-63
2022/06/17 11:49:16;;;;;;;36.15;6.28;;;28.60;55.70;;;;;;5015769;28;20048;-62
2022/06/17 11:51:46;;;;;;;27.10;5.60;;;28.60;54.90;;;;;;5019658;28;20449;-63
2022/06/17 11:54:19;;;;;;;25.08;5.70;;;28.80;54.10;;;;;;5027591;28;20510;-63
2022/06/17 11:56:48;;;;;;;20.30;4.93;;;28.90;54.60;;;;;;5036122;28;20033;-64
2022/06/17 11:59:17;;;;;;;19.67;4.55;;;29.00;54.50;;;;;;5000419;28;20036;-62
2022/06/17 12:02:04;;;;;;;19.70;5.53;;;29.10;54.60;;;;;;5021565;28;20021;-62
2022/06/17 12:04:45;;;;;;;26.15;5.63;;;29.20;54.10;;;;;;4997917;28;20516;-62
2022/06/17 12:07:48;;;;;;;17.15;4.80;;;29.30;54.20;;;;;;5035118;28;20029;-62
2022/06/17 12:10:52;;;;;;;27.60;4.40;;;29.30;53.50;;;;;;5017499;28;20044;-61
2022/06/17 12:13:28;;;;;;;21.60;5.15;;;29.50;53.40;;;;;;5030188;28;20102;-62
2022/06/17 12:16:15;;;;;;;32.88;5.60;;;29.60;53.50;;;;;;5034236;28;20048;-63
2022/06/17 12:18:46;;;;;;;26.05;4.63;;;29.70;53.20;;;;;;4991406;28;20393;-61
2022/06/17 12:21:25;;;;;;;25.27;5.05;;;29.80;53.10;;;;;;5001878;28;20125;-62
2022/06/17 12:24:12;;;;;;;34.83;5.95;;;29.90;53.00;;;;;;5015365;28;20039;-62
2022/06/17 12:26:50;;;;;;;37.63;5.05;;;30.00;52.70;;;;;;5017308;28;20384;-62
2022/06/17 12:29:38;;;;;;;25.30;4.97;;;30.10;52.70;;;;;;5012640;28;20090;-63
2022/06/17 12:32:06;;;;;;;21.48;5.70;;;30.20;52.30;;;;;;5010972;28;20516;-64
2022/06/17 12:34:39;;;;;;;28.92;5.25;;;30.30;52.20;;;;;;5018319;28;20094;-64
2022/06/17 12:37:18;;;;;;;34.55;5.78;;;30.40;52.10;;;;;;5010422;28;20049;-63
2022/06/17 12:40:16;;;;;;;31.42;5.25;;;30.50;52.00;;;;;;5016363;28;20486;-63
2022/06/17 12:42:58;;;;;;;29.20;6.00;;;30.60;51.80;;;;;;5002418;28;20064;-63
2022/06/17 12:45:42;;;;;;;51.53;7.13;;;30.70;51.80;;;;;;5004145;28;20021;-62
2022/06/17 12:48:34;;;;;;;42.65;6.70;;;30.70;51.40;;;;;;4994761;28;20110;-63
2022/06/17 12:54:41;;;;;;;37.70;5.85;;;31.00;51.00;;;;;;5025730;28;20039;-63
2022/06/17 12:57:18;;;;;;;42.78;6.72;;;31.10;51.20;;;;;;5006225;28;20048;-63
2022/06/17 13:00:04;;;;;;;45.40;6.55;;;31.20;51.00;;;;;;4994331;28;20029;-63
2022/06/17 13:02:46;;;;;;;36.60;7.05;;;31.30;50.80;;;;;;4997877;28;20523;-64
2022/06/17 13:05:16;;;;;;;41.83;6.57;;;31.40;50.60;;;;;;5015029;28;20040;-64
2022/06/17 13:08:09;;;;;;;55.75;6.80;;;31.50;50.50;;;;;;5002413;28;20040;-62
2022/06/17 13:10:56;;;;;;;54.35;6.22;;;31.60;50.30;;;;;;5018028;28;20021;-63
2022/06/17 13:13:45;;;;;;;29.67;6.25;;;31.80;50.30;;;;;;5031600;28;20160;-64